Time;durP1;ratioP1;P1;durP2;ratioP2;P2;SDS_P1;SDS_P2;PMS_P1;PMS_P2;Temp;Humidity;BMP_temperature;BMP_pressure;BME280_temperature;BME280_humidity;BME280_pressure;Samples;Min_cycle;Max_cycle;Signal;HPM_P1;HPM_P2
2023/12/30 00:00:14;;;;;;;5.65;1.52;;;7.60;99.90;;;;;;5087608;28;20108;-83
2023/12/30 00:02:39;;;;;;;3.25;1.40;;;7.60;99.90;;;;;;5085903;28;20055;-81
2023/12/30 00:05:08;;;;;;;6.22;1.20;;;7.60;99.90;;;;;;5083416;28;20032;-84
2023/12/30 00:07:34;;;;;;;2.30;1.17;;;7.60;99.90;;;;;;5083422;28;21158;-81
2023/12/30 00:10:00;;;;;;;11.50;1.30;;;7.70;99.90;;;;;;5088679;28;20039;-82
2023/12/30 00:12:26;;;;;;;7.63;2.95;;;7.60;99.90;;;;;;5093313;28;20019;-81
2023/12/30 00:14:52;;;;;;;2.80;1.08;;;7.60;99.90;;;;;;5086715;28;20059;-82
2023/12/30 00:17:17;;;;;;;10.63;1.42;;;7.60;99.90;;;;;;5081476;28;20452;-82
2023/12/30 00:19:45;;;;;;;3.17;1.30;;;7.60;99.90;;;;;;5078686;28;20040;-80
2023/12/30 00:22:13;;;;;;;5.13;1.40;;;7.70;99.90;;;;;;5089579;28;20030;-83
2023/12/30 00:24:43;;;;;;;10.82;1.38;;;7.70;99.90;;;;;;5090416;28;20055;-81
2023/12/30 00:27:09;;;;;;;12.10;1.80;;;7.70;99.90;;;;;;5089590;28;20088;-81
2023/12/30 00:29:39;;;;;;;8.30;1.58;;;7.70;99.90;;;;;;5079969;28;20032;-81
2023/12/30 00:32:08;;;;;;;6.60;1.70;;;7.70;99.90;;;;;;5081703;28;20035;-85
2023/12/30 00:34:36;;;;;;;5.80;1.77;;;7.70;99.90;;;;;;5083456;28;20032;-83
2023/12/30 00:37:01;;;;;;;11.82;1.85;;;7.80;99.90;;;;;;5094239;28;20032;-84
2023/12/30 00:39:27;;;;;;;9.15;2.03;;;7.80;99.90;;;;;;5086395;28;20024;-80
2023/12/30 00:41:53;;;;;;;8.73;1.75;;;7.80;99.90;;;;;;5089939;28;20066;-87
2023/12/30 00:44:18;;;;;;;9.85;1.70;;;7.80;99.90;;;;;;5086355;28;20028;-87
2023/12/30 00:46:44;;;;;;;4.65;1.42;;;7.80;99.90;;;;;;5092282;28;20020;-80
2023/12/30 00:49:11;;;;;;;7.50;1.33;;;7.90;99.90;;;;;;5085478;28;20145;-86
2023/12/30 00:51:37;;;;;;;5.13;1.30;;;7.90;99.90;;;;;;5080347;28;20032;-82
2023/12/30 00:54:02;;;;;;;4.15;1.80;;;7.90;99.90;;;;;;5091319;28;20490;-86
2023/12/30 00:56:28;;;;;;;8.77;1.80;;;8.00;99.90;;;;;;5083310;28;20024;-81
2023/12/30 00:58:53;;;;;;;5.97;2.47;;;8.00;99.90;;;;;;5096331;28;20056;-79
2023/12/30 01:01:19;;;;;;;6.97;1.20;;;8.00;99.90;;;;;;5084740;28;20465;-79
2023/12/30 01:03:48;;;;;;;5.53;2.20;;;8.00;99.90;;;;;;5076666;28;20496;-81
2023/12/30 01:06:13;;;;;;;4.55;1.60;;;8.00;99.90;;;;;;5079295;28;20109;-84
2023/12/30 01:08:39;;;;;;;8.30;1.52;;;8.10;99.90;;;;;;5086742;28;20074;-80
2023/12/30 01:11:04;;;;;;;4.97;2.13;;;8.10;99.90;;;;;;5093067;28;20119;-85
2023/12/30 01:13:30;;;;;;;5.85;1.80;;;8.10;99.90;;;;;;5084460;28;20020;-80
2023/12/30 01:15:56;;;;;;;9.30;1.48;;;8.20;99.90;;;;;;5078031;28;20032;-83
2023/12/30 01:18:22;;;;;;;5.15;1.50;;;8.10;99.90;;;;;;5086664;28;20035;-79
2023/12/30 01:20:47;;;;;;;5.13;1.73;;;8.20;99.90;;;;;;5075251;28;20387;-78
2023/12/30 01:23:14;;;;;;;8.18;2.00;;;8.20;99.90;;;;;;5076887;28;20028;-80
2023/12/30 01:25:41;;;;;;;5.93;1.42;;;8.20;99.90;;;;;;5093955;28;20025;-86
2023/12/30 01:28:07;;;;;;;8.05;1.45;;;8.20;99.90;;;;;;5080543;28;20054;-81
2023/12/30 01:30:33;;;;;;;5.90;1.52;;;8.20;99.90;;;;;;5079232;28;20085;-79
2023/12/30 01:32:58;;;;;;;7.95;1.92;;;8.20;99.90;;;;;;5075134;28;20035;-81
2023/12/30 01:35:24;;;;;;;7.07;1.40;;;8.20;99.90;;;;;;5087221;28;20066;-80
2023/12/30 01:37:49;;;;;;;5.43;1.48;;;8.20;99.90;;;;;;5088079;28;20020;-81
2023/12/30 01:40:18;;;;;;;6.20;1.50;;;8.20;99.90;;;;;;5093964;28;20063;-84
2023/12/30 01:42:44;;;;;;;7.40;1.50;;;8.20;99.90;;;;;;5084202;28;20111;-82
2023/12/30 01:45:09;;;;;;;3.67;1.42;;;8.20;99.90;;;;;;5098485;28;20492;-79
2023/12/30 01:47:39;;;;;;;2.78;1.23;;;8.20;99.90;;;;;;5097731;28;20490;-87
2023/12/30 01:50:05;;;;;;;9.48;1.65;;;8.20;99.90;;;;;;5081373;28;20366;-82
2023/12/30 01:52:33;;;;;;;9.85;1.70;;;8.20;99.90;;;;;;5078182;28;20468;-84
2023/12/30 01:54:58;;;;;;;8.60;1.70;;;8.20;99.90;;;;;;5079786;28;20101;-81
2023/12/30 01:57:24;;;;;;;3.03;1.38;;;8.20;99.90;;;;;;5088986;28;20516;-80
2023/12/30 01:59:51;;;;;;;3.60;1.02;;;8.10;99.90;;;;;;5098786;28;20054;-83
2023/12/30 02:02:17;;;;;;;0.75;0.75;;;8.10;99.90;;;;;;5090827;28;20027;-80
2023/12/30 02:04:43;;;;;;;3.35;1.08;;;7.90;99.90;;;;;;5074626;28;20076;-81
2023/12/30 02:07:09;;;;;;;2.03;0.88;;;7.80;99.90;;;;;;5092655;28;20035;-81
2023/12/30 02:09:34;;;;;;;3.17;0.85;;;7.70;99.90;;;;;;5088128;28;20031;-79
2023/12/30 02:12:00;;;;;;;3.92;1.00;;;7.60;99.90;;;;;;5087909;28;20041;-80
2023/12/30 02:14:30;;;;;;;4.78;1.27;;;7.50;99.90;;;;;;5083813;28;20491;-81
2023/12/30 02:16:57;;;;;;;7.70;1.65;;;7.40;99.90;;;;;;5077153;28;20185;-80
2023/12/30 02:19:23;;;;;;;1.60;1.00;;;7.50;99.90;;;;;;5076843;28;20052;-78
2023/12/30 02:21:49;;;;;;;4.75;1.50;;;7.40;99.90;;;;;;5100207;28;20081;-80
2023/12/30 02:24:14;;;;;;;9.18;1.92;;;7.30;99.90;;;;;;5084168;28;20044;-87
2023/12/30 02:26:40;;;;;;;7.00;1.40;;;7.40;99.90;;;;;;5075395;28;20028;-81
2023/12/30 02:29:07;;;;;;;9.45;1.58;;;7.50;99.90;;;;;;5090645;28;20351;-84
2023/12/30 02:31:33;;;;;;;3.63;1.10;;;7.70;99.90;;;;;;5080038;28;20032;-81
2023/12/30 02:33:59;;;;;;;3.83;0.80;;;7.80;99.90;;;;;;5098333;28;20028;-81
2023/12/30 02:36:25;;;;;;;6.32;0.80;;;7.60;99.90;;;;;;5100959;28;20015;-80
2023/12/30 02:38:51;;;;;;;1.00;0.85;;;7.30;99.90;;;;;;5086463;28;20036;-81
2023/12/30 02:41:16;;;;;;;2.58;0.95;;;7.10;99.90;;;;;;5084758;28;20153;-81
2023/12/30 02:43:56;;;;;;;1.08;0.90;;;6.90;99.90;;;;;;5086558;28;20637;-85
2023/12/30 02:46:22;;;;;;;1.67;0.90;;;6.60;99.90;;;;;;5087549;28;20032;-81
2023/12/30 02:48:48;;;;;;;3.67;1.00;;;6.40;99.90;;;;;;5086010;28;20123;-84
2023/12/30 02:51:15;;;;;;;2.80;0.95;;;6.30;99.90;;;;;;5078200;28;20027;-83
2023/12/30 02:53:40;;;;;;;2.17;0.80;;;6.20;99.90;;;;;;5082350;28;20034;-81
2023/12/30 02:56:06;;;;;;;1.90;0.82;;;6.30;99.90;;;;;;5079675;28;20107;-83
2023/12/30 02:58:32;;;;;;;1.00;0.85;;;6.10;99.90;;;;;;5091975;28;20111;-84
2023/12/30 03:00:58;;;;;;;1.10;0.80;;;6.10;99.90;;;;;;5084755;28;20020;-82
2023/12/30 03:03:23;;;;;;;1.85;0.80;;;6.00;99.90;;;;;;5085217;28;20024;-83
2023/12/30 03:05:49;;;;;;;0.50;0.50;;;6.00;99.90;;;;;;5088752;28;20034;-81
2023/12/30 03:08:14;;;;;;;0.95;0.77;;;5.90;99.90;;;;;;5079632;28;20153;-82
2023/12/30 03:10:40;;;;;;;0.95;0.70;;;5.90;99.90;;;;;;5090744;28;20055;-83
2023/12/30 03:13:05;;;;;;;0.60;0.60;;;5.90;99.90;;;;;;5083576;28;20043;-79
2023/12/30 03:15:31;;;;;;;1.40;0.70;;;5.90;99.90;;;;;;5076907;28;20035;-84
2023/12/30 03:17:57;;;;;;;1.20;0.77;;;5.90;99.90;;;;;;5085509;28;20035;-81
2023/12/30 03:20:22;;;;;;;3.40;0.80;;;5.90;99.90;;;;;;5089514;28;20388;-81
2023/12/30 03:22:48;;;;;;;4.47;0.68;;;5.90;99.90;;;;;;5087061;28;20468;-81
2023/12/30 03:25:14;;;;;;;0.85;0.60;;;5.90;99.90;;;;;;5097227;28;20450;-81
2023/12/30 03:27:39;;;;;;;0.60;0.60;;;5.90;99.90;;;;;;5082908;28;20056;-81
2023/12/30 03:30:08;;;;;;;1.38;0.73;;;5.80;99.90;;;;;;5082719;28;20484;-82
2023/12/30 03:32:34;;;;;;;0.55;0.55;;;5.80;99.90;;;;;;5088379;28;20059;-77
2023/12/30 03:35:05;;;;;;;3.92;0.70;;;5.80;99.90;;;;;;5084896;28;20313;-81
2023/12/30 03:37:30;;;;;;;0.75;0.60;;;5.70;99.90;;;;;;5087230;28;20403;-82
2023/12/30 03:39:56;;;;;;;0.80;0.80;;;5.70;99.90;;;;;;5088571;28;20113;-78
2023/12/30 03:42:22;;;;;;;1.52;1.00;;;5.70;99.90;;;;;;5089006;28;20470;-80
2023/12/30 03:44:47;;;;;;;0.70;0.70;;;5.70;99.90;;;;;;5092387;28;20077;-80
2023/12/30 03:47:13;;;;;;;0.60;0.60;;;5.70;99.90;;;;;;5087004;28;20032;-80
2023/12/30 03:49:38;;;;;;;0.65;0.65;;;5.70;99.90;;;;;;5092230;28;20472;-83
2023/12/30 03:52:07;;;;;;;0.60;0.60;;;5.70;99.90;;;;;;5082596;28;20034;-83
2023/12/30 03:54:32;;;;;;;0.75;0.75;;;5.60;99.90;;;;;;5079453;28;20453;-83
2023/12/30 03:56:58;;;;;;;1.45;0.80;;;5.60;99.90;;;;;;5087023;28;20030;-81
2023/12/30 03:59:23;;;;;;;3.08;1.17;;;5.50;99.90;;;;;;5087615;28;20373;-80
2023/12/30 04:01:49;;;;;;;1.00;0.90;;;5.50;99.90;;;;;;5084383;28;20056;-83
2023/12/30 04:04:14;;;;;;;4.03;0.93;;;5.50;99.90;;;;;;5085680;28;20036;-78
2023/12/30 04:06:41;;;;;;;0.90;0.90;;;5.50;99.90;;;;;;5085817;28;20467;-79
2023/12/30 04:09:07;;;;;;;2.05;0.80;;;5.50;99.90;;;;;;5091368;28;20047;-81
2023/12/30 04:11:32;;;;;;;1.10;0.80;;;5.50;99.90;;;;;;5082724;28;20425;-81
2023/12/30 04:13:58;;;;;;;0.90;0.90;;;5.50;99.90;;;;;;5084491;28;20028;-84
2023/12/30 04:16:24;;;;;;;6.72;0.90;;;5.50;99.90;;;;;;5080971;28;20261;-82
2023/12/30 04:18:49;;;;;;;3.95;1.33;;;5.40;99.90;;;;;;5087335;28;20110;-79
2023/12/30 04:21:15;;;;;;;5.82;1.30;;;5.40;99.90;;;;;;5082149;28;20150;-82
2023/12/30 04:23:40;;;;;;;2.88;1.88;;;5.40;99.90;;;;;;5080723;28;20020;-80
2023/12/30 04:26:10;;;;;;;5.70;1.73;;;5.40;99.90;;;;;;5074714;28;20025;-84
2023/12/30 04:28:35;;;;;;;1.35;1.02;;;5.40;99.90;;;;;;5080883;28;20151;-85
2023/12/30 04:31:01;;;;;;;4.03;1.55;;;5.40;99.90;;;;;;5077075;28;20052;-79
2023/12/30 04:33:27;;;;;;;6.65;1.98;;;5.40;99.90;;;;;;5083500;28;20078;-79
2023/12/30 04:35:52;;;;;;;2.60;1.80;;;5.50;99.90;;;;;;5080344;28;20039;-82
2023/12/30 04:38:19;;;;;;;6.15;1.98;;;5.50;99.90;;;;;;5097886;28;20032;-85
2023/12/30 04:40:45;;;;;;;10.93;1.75;;;5.60;99.90;;;;;;5089984;28;20032;-83
2023/12/30 04:43:12;;;;;;;5.07;1.58;;;5.50;99.90;;;;;;5083027;28;20031;-81
2023/12/30 04:45:37;;;;;;;5.75;1.40;;;5.50;99.90;;;;;;5077505;28;20563;-81
2023/12/30 04:48:06;;;;;;;2.72;1.30;;;5.50;99.90;;;;;;5085040;28;20392;-82
2023/12/30 04:50:32;;;;;;;5.47;1.40;;;5.50;99.90;;;;;;5084321;28;20036;-79
2023/12/30 04:52:58;;;;;;;2.88;1.63;;;5.60;99.90;;;;;;5078969;28;20111;-88
2023/12/30 04:55:24;;;;;;;7.63;1.58;;;5.60;99.90;;;;;;5081781;28;20476;-80
2023/12/30 04:57:50;;;;;;;4.38;1.73;;;5.60;99.90;;;;;;5094344;28;20031;-79
2023/12/30 05:00:17;;;;;;;5.18;1.52;;;5.60;99.90;;;;;;5078107;28;20077;-82
2023/12/30 05:02:42;;;;;;;3.15;1.40;;;5.60;99.90;;;;;;5073910;28;20020;-79
2023/12/30 05:05:08;;;;;;;5.72;1.60;;;5.60;99.90;;;;;;5080106;28;20063;-81
2023/12/30 05:07:34;;;;;;;5.47;1.42;;;5.60;99.90;;;;;;5089012;28;20139;-87
2023/12/30 05:09:59;;;;;;;7.15;1.75;;;5.70;99.90;;;;;;5080096;28;20896;-85
2023/12/30 05:12:25;;;;;;;5.82;1.60;;;5.70;99.90;;;;;;5090480;28;20027;-81
2023/12/30 05:14:51;;;;;;;3.78;1.60;;;5.70;99.90;;;;;;5097129;28;20127;-80
2023/12/30 05:17:16;;;;;;;7.65;1.63;;;5.70;99.90;;;;;;5087934;28;20056;-79
2023/12/30 05:19:42;;;;;;;6.63;1.70;;;5.70;99.90;;;;;;5083085;28;20028;-79
2023/12/30 05:22:07;;;;;;;5.20;1.58;;;5.70;99.90;;;;;;5075503;28;20404;-79
2023/12/30 05:24:33;;;;;;;7.57;2.22;;;5.70;99.90;;;;;;5085436;28;20081;-79
2023/12/30 05:26:58;;;;;;;8.63;1.75;;;5.80;99.90;;;;;;5085235;28;20028;-80
2023/12/30 05:29:24;;;;;;;12.70;2.25;;;5.80;99.90;;;;;;5090814;28;20040;-79
2023/12/30 05:31:49;;;;;;;6.60;2.20;;;5.80;99.90;;;;;;5093604;28;20038;-78
2023/12/30 05:34:15;;;;;;;8.18;2.15;;;5.90;99.90;;;;;;5095613;28;20040;-83
2023/12/30 05:36:40;;;;;;;25.85;2.63;;;5.80;99.90;;;;;;5090959;28;20016;-82
2023/12/30 05:39:06;;;;;;;12.05;2.58;;;5.90;99.90;;;;;;5097168;28;20466;-83
2023/12/30 05:41:31;;;;;;;14.93;3.30;;;5.90;99.90;;;;;;5084580;28;20399;-80
2023/12/30 05:43:57;;;;;;;13.43;2.58;;;6.00;99.90;;;;;;5082969;28;20036;-83
2023/12/30 05:46:23;;;;;;;14.60;2.25;;;6.00;99.90;;;;;;5090003;28;20142;-85
2023/12/30 05:48:48;;;;;;;15.23;2.92;;;6.00;99.90;;;;;;5076895;28;20036;-84
2023/12/30 05:51:14;;;;;;;10.18;2.38;;;6.00;99.90;;;;;;5085968;28;20051;-81
2023/12/30 05:53:52;;;;;;;14.50;2.60;;;6.10;99.90;;;;;;5085026;28;20456;-79
2023/12/30 05:56:24;;;;;;;12.90;2.67;;;6.10;99.90;;;;;;5080418;28;20418;-80
2023/12/30 05:58:52;;;;;;;9.85;2.65;;;6.10;99.90;;;;;;5088449;28;20527;-81
2023/12/30 06:01:17;;;;;;;11.13;2.53;;;6.10;99.90;;;;;;5079998;28;20036;-80
2023/12/30 06:03:43;;;;;;;15.10;2.90;;;6.10;99.90;;;;;;5088868;28;20093;-80
2023/12/30 06:06:08;;;;;;;8.90;2.75;;;6.10;99.90;;;;;;5079122;28;20114;-81
2023/12/30 06:08:34;;;;;;;10.73;2.63;;;6.10;99.90;;;;;;5084147;28;20391;-80
2023/12/30 06:11:00;;;;;;;16.33;3.13;;;6.10;99.90;;;;;;5097143;28;20019;-80
2023/12/30 06:13:25;;;;;;;12.85;3.38;;;6.10;99.90;;;;;;5091026;28;20028;-80
2023/12/30 06:15:51;;;;;;;9.70;2.50;;;6.10;99.90;;;;;;5089842;28;20092;-82
2023/12/30 06:18:18;;;;;;;21.30;4.90;;;6.10;99.90;;;;;;5083580;28;20028;-83
2023/12/30 06:20:46;;;;;;;18.20;5.53;;;6.10;99.90;;;;;;5077123;28;20048;-80
2023/12/30 06:23:13;;;;;;;17.10;2.85;;;6.20;99.90;;;;;;5086854;28;20028;-83
2023/12/30 06:25:39;;;;;;;20.42;2.95;;;6.20;99.90;;;;;;5079333;28;20032;-81
2023/12/30 06:28:08;;;;;;;15.43;3.58;;;6.20;99.90;;;;;;5078320;28;20055;-80
2023/12/30 06:30:33;;;;;;;13.50;2.55;;;6.20;99.90;;;;;;5079255;28;21303;-80
2023/12/30 06:33:05;;;;;;;12.32;2.58;;;6.20;99.90;;;;;;5082856;28;20028;-79
2023/12/30 06:35:34;;;;;;;18.80;3.28;;;6.10;99.90;;;;;;5083549;28;20480;-81
2023/12/30 06:38:00;;;;;;;8.90;2.28;;;6.20;99.90;;;;;;5082663;28;20028;-79
2023/12/30 06:40:27;;;;;;;12.32;2.85;;;6.10;99.90;;;;;;5084920;28;20034;-80
2023/12/30 06:42:53;;;;;;;19.35;2.90;;;6.10;99.90;;;;;;5091603;27;20032;-81
2023/12/30 06:45:19;;;;;;;11.93;3.20;;;6.10;99.90;;;;;;5079364;28;20024;-79
2023/12/30 06:47:44;;;;;;;13.43;3.70;;;6.10;99.90;;;;;;5081356;28;20388;-79
2023/12/30 06:50:22;;;;;;;16.95;3.08;;;6.10;99.90;;;;;;5091258;28;20032;-80
2023/12/30 06:52:48;;;;;;;16.92;2.70;;;6.10;99.90;;;;;;5086081;28;20499;-79
2023/12/30 06:55:14;;;;;;;14.85;2.65;;;6.10;99.90;;;;;;5085239;28;20024;-80
2023/12/30 06:57:42;;;;;;;22.00;3.67;;;6.20;99.90;;;;;;5095142;28;20468;-80
2023/12/30 07:00:07;;;;;;;18.40;3.85;;;6.20;99.90;;;;;;5078391;28;20032;-78
2023/12/30 07:02:34;;;;;;;7.05;2.70;;;6.20;99.90;;;;;;5088067;28;20421;-81
2023/12/30 07:04:59;;;;;;;13.73;3.00;;;6.20;99.90;;;;;;5091873;28;20028;-81
2023/12/30 07:07:25;;;;;;;14.45;2.83;;;6.20;99.90;;;;;;5082218;28;20051;-80
2023/12/30 07:16:34;;;;;;;10.60;2.50;;;6.10;99.90;;;;;;4832878;22;20284;-85
2023/12/30 07:19:00;;;;;;;7.15;2.13;;;6.20;99.90;;;;;;5017104;28;20025;-84
2023/12/30 07:21:28;;;;;;;17.60;2.85;;;6.20;99.90;;;;;;5021551;28;20028;-93
2023/12/30 07:23:54;;;;;;;14.48;3.28;;;6.10;99.90;;;;;;5021088;28;20025;-85
2023/12/30 07:26:19;;;;;;;23.60;2.75;;;6.10;99.90;;;;;;5018362;28;20523;-83
2023/12/30 07:28:46;;;;;;;9.98;2.40;;;6.10;99.90;;;;;;5018884;28;20026;-88
2023/12/30 07:31:14;;;;;;;14.27;2.63;;;6.20;99.90;;;;;;5019757;28;20021;-85
2023/12/30 07:33:40;;;;;;;16.52;2.95;;;6.20;99.90;;;;;;5019307;28;20124;-84
2023/12/30 07:36:07;;;;;;;16.58;2.90;;;6.20;99.90;;;;;;5017222;28;20513;-79
2023/12/30 07:38:33;;;;;;;18.27;3.28;;;6.20;99.90;;;;;;5019622;28;20370;-83
2023/12/30 07:40:59;;;;;;;14.70;2.65;;;6.20;99.90;;;;;;5021731;28;20026;-84
2023/12/30 07:43:24;;;;;;;18.80;2.50;;;6.30;99.90;;;;;;5017367;28;20090;-85
2023/12/30 07:45:50;;;;;;;9.88;2.30;;;6.30;99.90;;;;;;5019321;28;20033;-84
2023/12/30 07:48:15;;;;;;;21.25;2.80;;;6.30;99.90;;;;;;4998473;28;20363;-84
2023/12/30 07:50:43;;;;;;;11.05;2.03;;;6.20;99.90;;;;;;5014267;28;20516;-84
2023/12/30 07:53:09;;;;;;;9.88;2.20;;;6.30;99.90;;;;;;5012080;28;20055;-87
2023/12/30 07:55:35;;;;;;;13.38;2.38;;;6.20;99.90;;;;;;5018703;28;20172;-82
2023/12/30 07:58:10;;;;;;;11.68;3.20;;;6.30;99.90;;;;;;4992605;28;20104;-87
2023/12/30 08:00:35;;;;;;;10.97;1.83;;;6.30;99.90;;;;;;5018543;28;20057;-83
2023/12/30 08:03:01;;;;;;;15.27;2.03;;;6.30;99.90;;;;;;5007036;28;20029;-85
2023/12/30 08:05:26;;;;;;;21.80;4.70;;;6.30;99.90;;;;;;5007927;28;20033;-83
2023/12/30 08:07:52;;;;;;;13.15;2.83;;;6.30;99.90;;;;;;5011940;28;20021;-88
2023/12/30 08:10:18;;;;;;;15.82;2.63;;;6.30;99.90;;;;;;5016861;28;20037;-82
2023/12/30 08:12:44;;;;;;;21.13;2.60;;;6.40;99.90;;;;;;5014550;28;20022;-83
2023/12/30 08:15:10;;;;;;;11.35;2.33;;;6.40;99.90;;;;;;5013253;28;20118;-81
2023/12/30 08:17:36;;;;;;;11.60;2.10;;;6.40;99.90;;;;;;5011895;28;20044;-82
2023/12/30 08:20:02;;;;;;;14.10;2.10;;;6.40;99.90;;;;;;5015221;28;20125;-83
2023/12/30 08:22:28;;;;;;;13.27;2.63;;;6.40;99.90;;;;;;5016891;28;20030;-84
2023/12/30 08:24:56;;;;;;;7.38;2.45;;;6.40;99.90;;;;;;5016007;28;20260;-86
2023/12/30 08:27:22;;;;;;;7.18;2.20;;;6.40;99.90;;;;;;5017217;28;20104;-84
2023/12/30 08:29:50;;;;;;;7.80;2.00;;;6.50;99.90;;;;;;5012293;28;20490;-92
2023/12/30 08:32:16;;;;;;;7.35;2.08;;;6.50;99.90;;;;;;5005680;28;20291;-86
2023/12/30 08:34:41;;;;;;;10.25;2.78;;;6.50;99.90;;;;;;5018829;28;20025;-86
2023/12/30 08:37:09;;;;;;;7.00;1.90;;;6.60;99.90;;;;;;5015947;28;20480;-82
2023/12/30 08:39:37;;;;;;;8.73;1.80;;;6.60;99.90;;;;;;5016790;28;20030;-86
2023/12/30 08:42:06;;;;;;;6.60;1.90;;;6.50;99.90;;;;;;5007653;28;20030;-81
2023/12/30 08:44:32;;;;;;;14.10;2.13;;;6.50;99.90;;;;;;5024155;28;20029;-78
2023/12/30 08:46:57;;;;;;;5.85;2.13;;;6.60;99.90;;;;;;5021544;28;20033;-81
2023/12/30 08:49:23;;;;;;;7.47;1.90;;;6.60;99.90;;;;;;5016189;28;20475;-84
2023/12/30 08:51:48;;;;;;;11.30;2.13;;;6.60;99.90;;;;;;5013498;28;20429;-82
2023/12/30 08:54:15;;;;;;;3.92;1.73;;;6.60;99.90;;;;;;5021107;28;20063;-87
2023/12/30 08:56:40;;;;;;;10.50;2.63;;;6.60;99.90;;;;;;5017275;28;20034;-80
2023/12/30 08:59:06;;;;;;;11.82;2.67;;;6.60;99.90;;;;;;5010928;28;20068;-84
2023/12/30 09:01:32;;;;;;;8.90;2.40;;;6.60;99.90;;;;;;5038181;22;20058;-83
2023/12/30 09:03:59;;;;;;;3.38;1.67;;;6.60;99.90;;;;;;5014060;28;20039;-86
2023/12/30 09:06:25;;;;;;;8.95;3.17;;;6.70;99.90;;;;;;5024110;28;20064;-84
2023/12/30 09:08:50;;;;;;;11.50;2.17;;;6.70;99.90;;;;;;5024535;28;20528;-84
2023/12/30 09:11:20;;;;;;;10.65;2.08;;;6.70;99.90;;;;;;5023978;28;20036;-80
2023/12/30 09:13:47;;;;;;;10.00;2.38;;;6.80;99.90;;;;;;5023470;28;20474;-82
2023/12/30 09:16:13;;;;;;;8.00;1.98;;;6.80;99.90;;;;;;5020735;28;20543;-81
2023/12/30 09:18:38;;;;;;;4.78;1.80;;;6.80;99.90;;;;;;5023085;28;20040;-82
2023/12/30 09:21:03;;;;;;;7.55;1.77;;;6.90;99.90;;;;;;5016095;28;20061;-82
2023/12/30 09:23:32;;;;;;;3.72;2.05;;;6.90;99.90;;;;;;5022948;28;20035;-84
2023/12/30 09:26:00;;;;;;;5.63;2.25;;;6.90;99.90;;;;;;5021956;28;20120;-83
2023/12/30 09:28:25;;;;;;;7.20;2.13;;;6.90;99.90;;;;;;5030168;28;20029;-85
2023/12/30 09:30:51;;;;;;;5.53;2.05;;;6.90;99.90;;;;;;5026745;28;20061;-83
2023/12/30 09:33:17;;;;;;;15.68;3.17;;;7.00;99.90;;;;;;5021850;28;20017;-79
2023/12/30 09:35:42;;;;;;;8.27;2.42;;;7.00;99.90;;;;;;5024389;28;20371;-80
2023/12/30 09:38:08;;;;;;;12.98;3.22;;;7.00;99.90;;;;;;5024815;28;20362;-85
2023/12/30 09:40:33;;;;;;;15.57;2.22;;;7.00;99.90;;;;;;5025477;28;20121;-83
2023/12/30 09:43:04;;;;;;;11.85;2.38;;;7.10;99.90;;;;;;5022551;28;20052;-85
2023/12/30 09:45:34;;;;;;;9.77;2.10;;;7.10;99.90;;;;;;5028034;28;20104;-83
2023/12/30 09:48:02;;;;;;;5.97;1.70;;;7.10;99.90;;;;;;5020840;28;20066;-82
2023/12/30 09:50:29;;;;;;;4.05;1.77;;;7.10;99.90;;;;;;5025299;28;20083;-81
2023/12/30 09:52:54;;;;;;;5.40;2.08;;;7.20;99.90;;;;;;5026276;28;20018;-80
2023/12/30 09:55:20;;;;;;;12.43;2.20;;;7.30;99.90;;;;;;5018421;28;20036;-84
2023/12/30 09:57:46;;;;;;;8.32;1.63;;;7.30;99.90;;;;;;5027540;28;20079;-81
2023/12/30 10:00:16;;;;;;;18.42;2.15;;;7.30;99.90;;;;;;5021474;28;20027;-79
2023/12/30 10:02:47;;;;;;;8.05;1.67;;;7.30;99.90;;;;;;5025265;28;20437;-81
2023/12/30 10:05:15;;;;;;;8.93;1.95;;;7.30;99.90;;;;;;5020662;28;20029;-84
2023/12/30 10:07:43;;;;;;;7.85;2.25;;;7.30;99.90;;;;;;5030619;28;20180;-90
2023/12/30 10:10:09;;;;;;;16.35;2.50;;;7.30;99.90;;;;;;5025941;28;20048;-83
2023/12/30 10:12:35;;;;;;;12.00;2.45;;;7.40;99.90;;;;;;5018189;28;20026;-82
2023/12/30 10:15:00;;;;;;;14.55;1.92;;;7.40;99.90;;;;;;5023737;28;20430;-78
2023/12/30 10:17:26;;;;;;;6.43;1.52;;;7.50;99.90;;;;;;5019921;28;20487;-86
2023/12/30 10:19:52;;;;;;;8.38;1.65;;;7.40;99.90;;;;;;5026029;28;20029;-85
2023/12/30 10:22:18;;;;;;;10.85;1.73;;;7.40;99.90;;;;;;5024618;28;20116;-83
2023/12/30 10:24:44;;;;;;;9.00;1.90;;;7.50;99.90;;;;;;5023521;28;20486;-80
2023/12/30 10:27:10;;;;;;;14.48;1.98;;;7.50;99.90;;;;;;5020184;28;20051;-81
2023/12/30 10:29:36;;;;;;;10.57;1.92;;;7.50;99.90;;;;;;5019408;28;20404;-84
2023/12/30 10:32:03;;;;;;;11.43;2.15;;;7.50;99.90;;;;;;5021963;28;20102;-83
2023/12/30 10:34:32;;;;;;;9.43;2.00;;;7.60;99.90;;;;;;5026458;28;20022;-82
2023/12/30 10:37:00;;;;;;;6.72;2.03;;;7.70;99.90;;;;;;5022168;28;20528;-86
2023/12/30 10:39:26;;;;;;;9.80;2.40;;;7.60;99.90;;;;;;5023270;28;20036;-80
2023/12/30 10:41:52;;;;;;;13.68;1.77;;;7.70;99.90;;;;;;5029454;28;20045;-85
2023/12/30 10:44:18;;;;;;;7.15;1.42;;;7.60;99.90;;;;;;5020584;28;20374;-81
2023/12/30 10:46:48;;;;;;;4.35;1.45;;;7.60;99.90;;;;;;5021804;28;20028;-83
2023/12/30 10:49:17;;;;;;;5.95;1.92;;;7.60;99.90;;;;;;5027065;28;20095;-81
2023/12/30 10:51:43;;;;;;;15.73;2.22;;;7.60;99.90;;;;;;5016763;28;20030;-83
2023/12/30 10:54:13;;;;;;;10.15;1.77;;;7.60;99.90;;;;;;5024761;28;20037;-80
2023/12/30 10:56:53;;;;;;;7.25;2.00;;;7.60;99.90;;;;;;5023186;28;20037;-92
2023/12/30 10:59:19;;;;;;;10.80;3.90;;;7.60;99.90;;;;;;5024250;28;20022;-81
2023/12/30 11:01:46;;;;;;;11.00;1.77;;;7.60;99.90;;;;;;5022300;28;20048;-86
2023/12/30 11:04:12;;;;;;;4.78;1.55;;;7.60;99.90;;;;;;5017885;28;20030;-81
2023/12/30 11:06:54;;;;;;;13.07;2.08;;;7.60;99.90;;;;;;5022268;28;20037;-85
2023/12/30 11:09:24;;;;;;;10.38;2.15;;;7.60;99.90;;;;;;5021243;28;20045;-82
2023/12/30 11:11:56;;;;;;;13.00;2.42;;;7.60;99.90;;;;;;5020332;28;20025;-79
2023/12/30 11:14:22;;;;;;;14.98;1.75;;;7.60;99.90;;;;;;5019953;28;20112;-83
2023/12/30 11:16:51;;;;;;;6.25;1.95;;;7.60;99.90;;;;;;5018626;28;20083;-78
2023/12/30 11:19:31;;;;;;;15.82;2.58;;;7.70;99.90;;;;;;5024841;28;20466;-79
2023/12/30 11:22:01;;;;;;;9.23;2.10;;;7.80;99.90;;;;;;5016591;28;20030;-81
2023/12/30 11:24:27;;;;;;;17.02;2.83;;;7.70;99.90;;;;;;5021249;28;20018;-80
2023/12/30 11:26:55;;;;;;;5.43;1.83;;;7.80;99.90;;;;;;5021204;28;20535;-79
2023/12/30 11:29:25;;;;;;;9.15;2.15;;;7.80;99.90;;;;;;5020426;28;20099;-87
2023/12/30 11:31:52;;;;;;;8.20;1.83;;;7.90;99.90;;;;;;5019200;28;20057;-78
2023/12/30 11:34:19;;;;;;;8.20;2.33;;;7.90;99.90;;;;;;5015843;28;20036;-79
2023/12/30 11:36:47;;;;;;;12.30;2.17;;;7.90;99.90;;;;;;5018052;28;20083;-83
2023/12/30 11:39:43;;;;;;;7.88;1.90;;;7.90;99.90;;;;;;5015914;28;20036;-80
2023/12/30 11:42:09;;;;;;;7.72;2.50;;;7.90;99.90;;;;;;5009073;28;20045;-85
2023/12/30 11:44:38;;;;;;;9.95;2.42;;;7.90;99.90;;;;;;5021206;28;20044;-93
2023/12/30 11:47:05;;;;;;;8.10;2.03;;;7.90;99.90;;;;;;5020445;28;20037;-78
2023/12/30 11:49:30;;;;;;;9.85;1.95;;;7.90;99.90;;;;;;5012180;28;20437;-85
2023/12/30 11:52:05;;;;;;;8.52;2.00;;;7.90;99.90;;;;;;5017332;28;20024;-86
2023/12/30 11:54:32;;;;;;;7.60;1.73;;;7.90;99.90;;;;;;5020155;28;20075;-83
2023/12/30 11:56:59;;;;;;;10.38;1.90;;;7.90;99.90;;;;;;5025762;28;20531;-82
2023/12/30 11:59:25;;;;;;;10.32;1.70;;;7.90;99.90;;;;;;5014665;28;20090;-83
2023/12/30 12:01:50;;;;;;;7.80;1.80;;;8.00;99.90;;;;;;5020194;28;20573;-83
2023/12/30 12:04:16;;;;;;;12.15;1.95;;;7.90;99.90;;;;;;5030359;28;20026;-82
2023/12/30 12:06:41;;;;;;;16.63;2.53;;;7.90;99.90;;;;;;5020723;28;20021;-80
2023/12/30 12:09:07;;;;;;;15.65;3.00;;;8.00;99.90;;;;;;5016243;28;20087;-82
2023/12/30 12:11:33;;;;;;;13.88;2.42;;;8.00;99.90;;;;;;5012059;28;20076;-81
2023/12/30 12:13:58;;;;;;;13.13;2.42;;;8.00;99.90;;;;;;5020249;28;20037;-81
2023/12/30 12:16:25;;;;;;;9.88;1.75;;;7.90;99.90;;;;;;5015256;28;20029;-83
2023/12/30 12:18:52;;;;;;;9.23;1.83;;;7.90;99.90;;;;;;5021360;28;20037;-81
2023/12/30 12:21:18;;;;;;;12.38;1.80;;;7.90;99.90;;;;;;5021922;28;20060;-82
2023/12/30 12:23:43;;;;;;;7.45;1.77;;;7.80;99.90;;;;;;5014669;28;20379;-82
2023/12/30 12:26:09;;;;;;;6.22;1.52;;;7.90;99.90;;;;;;5017102;28;20356;-84
2023/12/30 12:28:35;;;;;;;5.50;1.92;;;7.90;99.90;;;;;;5009349;28;20025;-81
2023/12/30 12:31:05;;;;;;;4.18;1.17;;;7.90;99.90;;;;;;5015659;28;20025;-79
2023/12/30 12:33:34;;;;;;;9.15;1.65;;;8.00;99.90;;;;;;5022984;28;20033;-80
2023/12/30 12:36:00;;;;;;;10.35;2.20;;;8.00;99.90;;;;;;5025003;28;20492;-79
2023/12/30 12:38:25;;;;;;;10.07;1.83;;;8.00;99.90;;;;;;5021444;28;20029;-82
2023/12/30 12:40:51;;;;;;;7.38;1.98;;;8.00;99.90;;;;;;5022321;28;20454;-85
2023/12/30 12:43:18;;;;;;;7.72;2.03;;;8.00;99.90;;;;;;5023894;28;20025;-82
2023/12/30 12:45:44;;;;;;;6.72;1.88;;;8.00;99.90;;;;;;5019308;28;20402;-82
2023/12/30 12:48:10;;;;;;;7.13;1.92;;;8.10;99.90;;;;;;5019067;28;20025;-78
2023/12/30 12:50:36;;;;;;;7.20;1.35;;;8.10;99.90;;;;;;5019538;28;20056;-81
2023/12/30 12:53:02;;;;;;;14.25;3.17;;;8.10;99.90;;;;;;5016693;28;20483;-81
2023/12/30 12:55:27;;;;;;;12.55;1.80;;;8.10;99.90;;;;;;5022029;28;20393;-79